Time;durP1;ratioP1;P1;durP2;ratioP2;P2;SDS_P1;SDS_P2;PMS_P1;PMS_P2;Temp;Humidity;BMP_temperature;BMP_pressure;BME280_temperature;BME280_humidity;BME280_pressure;Samples;Min_cycle;Max_cycle;Signal;HPM_P1;HPM_P2
2022/01/11 00:00:22;;;;;;;62.13;28.63;;;0.40;99.90;;;;;;5013983;28;20651;-73
2022/01/11 00:02:50;;;;;;;68.60;26.10;;;0.40;99.90;;;;;;5011827;28;20277;-76
2022/01/11 00:05:27;;;;;;;61.10;27.23;;;0.30;99.90;;;;;;5012883;28;20185;-76
2022/01/11 00:07:54;;;;;;;67.00;27.13;;;0.20;99.90;;;;;;5013684;28;20552;-76
2022/01/11 00:10:33;;;;;;;65.60;26.25;;;0.20;99.90;;;;;;5012566;28;20656;-76
2022/01/11 00:13:00;;;;;;;73.47;28.05;;;0.30;99.90;;;;;;5014108;28;20641;-74
2022/01/11 00:15:27;;;;;;;54.35;29.17;;;0.30;99.90;;;;;;5013498;28;20188;-74
2022/01/11 00:17:54;;;;;;;66.55;28.85;;;0.30;99.90;;;;;;5012676;28;20738;-74
2022/01/11 00:20:21;;;;;;;71.53;26.95;;;0.40;99.90;;;;;;5012772;28;20181;-76
2022/01/11 00:25:43;;;;;;;57.17;28.55;;;0.20;99.90;;;;;;4993359;28;20249;-75
2022/01/11 00:28:10;;;;;;;97.53;39.30;;;0.20;99.90;;;;;;5013175;28;20206;-76
2022/01/11 00:30:39;;;;;;;109.57;45.08;;;0.20;99.90;;;;;;5014870;28;20180;-75
2022/01/11 00:33:09;;;;;;;97.57;44.53;;;0.20;99.90;;;;;;5014607;28;20188;-73
2022/01/11 00:35:43;;;;;;;61.97;26.20;;;0.20;99.90;;;;;;5013868;28;20181;-76
2022/01/11 00:38:17;;;;;;;51.42;21.95;;;0.30;99.90;;;;;;5014289;28;20216;-74
2022/01/11 00:40:51;;;;;;;65.60;24.02;;;0.30;99.90;;;;;;5014744;28;20195;-75
2022/01/11 00:43:18;;;;;;;59.30;24.50;;;0.30;99.90;;;;;;5014690;28;20179;-75
2022/01/11 00:45:44;;;;;;;60.08;24.58;;;0.30;99.90;;;;;;5014535;28;20262;-76
2022/01/11 00:48:10;;;;;;;53.25;23.60;;;0.20;99.90;;;;;;5014142;28;20203;-77
2022/01/11 00:50:37;;;;;;;58.28;25.60;;;0.20;99.90;;;;;;5014602;28;20209;-75
2022/01/11 00:53:08;;;;;;;67.80;26.15;;;0.20;99.90;;;;;;5013393;28;20192;-76
2022/01/11 00:55:34;;;;;;;67.20;25.50;;;0.20;99.90;;;;;;5014596;28;20187;-76
2022/01/11 00:58:00;;;;;;;76.70;25.80;;;0.20;99.90;;;;;;5013968;28;20216;-73
2022/01/11 01:00:25;;;;;;;60.50;26.80;;;0.20;99.90;;;;;;5014281;28;20173;-76
2022/01/11 01:02:51;;;;;;;70.00;26.13;;;0.30;99.90;;;;;;5014322;28;20191;-75
2022/01/11 01:05:17;;;;;;;60.80;24.77;;;0.30;99.90;;;;;;5014234;28;20655;-76
2022/01/11 01:07:46;;;;;;;64.45;27.27;;;0.30;99.90;;;;;;5013795;28;20180;-75
2022/01/11 01:10:22;;;;;;;58.42;25.70;;;0.20;99.90;;;;;;5014159;28;20542;-76
2022/01/11 01:12:47;;;;;;;57.65;25.60;;;0.30;99.90;;;;;;5014108;28;20554;-75
2022/01/11 01:15:13;;;;;;;57.73;24.30;;;0.30;99.90;;;;;;5014094;28;20196;-75
2022/01/11 01:17:39;;;;;;;53.63;24.07;;;0.30;99.90;;;;;;5013787;28;20677;-76
2022/01/11 01:20:06;;;;;;;56.63;24.50;;;0.30;99.90;;;;;;5013947;28;20206;-76
2022/01/11 01:22:31;;;;;;;51.47;22.10;;;0.30;99.90;;;;;;5013906;28;20187;-76
2022/01/11 01:24:57;;;;;;;49.50;23.00;;;0.30;99.90;;;;;;5013953;28;20668;-76
2022/01/11 01:27:22;;;;;;;48.60;22.73;;;0.30;99.90;;;;;;5013963;28;20611;-75
2022/01/11 01:29:48;;;;;;;62.00;25.63;;;0.20;99.90;;;;;;5013747;28;20207;-75
2022/01/11 01:32:14;;;;;;;58.53;23.63;;;0.30;99.90;;;;;;5013839;28;20207;-76
2022/01/11 01:34:40;;;;;;;51.73;24.77;;;0.30;99.90;;;;;;5013679;28;20183;-76
2022/01/11 01:37:07;;;;;;;57.57;23.53;;;0.30;99.90;;;;;;5013492;28;20639;-76
2022/01/11 01:39:34;;;;;;;61.05;24.77;;;0.30;99.90;;;;;;5013325;28;20496;-76
2022/01/11 01:42:03;;;;;;;59.60;25.90;;;0.30;99.90;;;;;;5013770;28;20196;-76
2022/01/11 01:44:30;;;;;;;67.57;27.52;;;0.20;99.90;;;;;;5013872;28;20175;-76
2022/01/11 01:46:56;;;;;;;65.00;26.83;;;0.20;99.90;;;;;;5013654;28;20259;-76
2022/01/11 01:49:23;;;;;;;58.23;26.80;;;0.20;99.90;;;;;;5013332;28;20223;-75
2022/01/11 01:51:49;;;;;;;72.82;29.25;;;0.30;99.90;;;;;;5013720;28;20180;-76
2022/01/11 01:54:15;;;;;;;73.55;29.42;;;0.30;99.90;;;;;;5013587;28;20182;-76
2022/01/11 01:56:42;;;;;;;71.60;30.53;;;0.30;99.90;;;;;;5013568;28;20266;-75
2022/01/11 01:59:08;;;;;;;68.25;30.05;;;0.30;99.90;;;;;;5012973;28;20869;-75
2022/01/11 02:01:38;;;;;;;70.53;29.00;;;0.40;99.90;;;;;;5013483;28;20199;-76
2022/01/11 02:04:04;;;;;;;61.78;28.17;;;0.40;99.90;;;;;;5013547;28;20414;-76
2022/01/11 02:06:29;;;;;;;61.17;27.67;;;0.40;99.90;;;;;;5013432;28;20183;-75
2022/01/11 02:08:55;;;;;;;56.63;27.40;;;0.30;99.90;;;;;;5012917;28;20584;-76
2022/01/11 02:11:23;;;;;;;65.30;27.43;;;0.30;99.90;;;;;;5013318;28;20188;-75
2022/01/11 02:13:49;;;;;;;57.13;24.90;;;0.30;99.90;;;;;;5013335;28;20184;-76
2022/01/11 02:16:19;;;;;;;57.67;27.15;;;0.30;99.90;;;;;;5013323;28;20262;-75
2022/01/11 02:18:46;;;;;;;48.95;22.75;;;0.20;99.90;;;;;;5012759;28;20203;-76
2022/01/11 02:21:12;;;;;;;53.38;24.23;;;0.10;99.90;;;;;;5013162;28;20176;-76
2022/01/11 02:23:38;;;;;;;50.20;24.17;;;0.10;99.90;;;;;;5013244;28;20662;-76
2022/01/11 02:26:04;;;;;;;47.73;24.17;;;0.10;99.90;;;;;;5013394;28;20497;-76
2022/01/11 02:28:31;;;;;;;56.00;22.73;;;0.10;99.90;;;;;;5012891;28;20203;-75
2022/01/11 02:30:58;;;;;;;51.25;21.42;;;0.00;99.90;;;;;;5013181;28;20204;-76
2022/01/11 02:33:36;;;;;;;57.83;23.83;;;0.10;99.90;;;;;;5013100;28;20179;-75
2022/01/11 02:36:05;;;;;;;48.70;23.50;;;0.10;99.90;;;;;;5013236;28;20176;-75
2022/01/11 02:38:31;;;;;;;46.10;21.45;;;0.10;99.90;;;;;;5012741;28;20572;-75
2022/01/11 02:40:58;;;;;;;54.17;22.05;;;0.00;99.90;;;;;;5012079;28;20235;-75
2022/01/11 02:43:24;;;;;;;47.33;22.85;;;0.00;99.90;;;;;;5013075;28;20531;-76
2022/01/11 02:45:50;;;;;;;46.88;19.75;;;0.00;99.90;;;;;;5016696;28;20179;-75
2022/01/11 02:48:16;;;;;;;49.90;22.23;;;0.00;99.90;;;;;;5016497;28;20275;-75
2022/01/11 02:50:47;;;;;;;48.75;22.83;;;0.00;99.90;;;;;;5016818;28;20182;-75
2022/01/11 02:53:13;;;;;;;48.63;21.00;;;0.00;99.90;;;;;;5015609;28;20183;-75
2022/01/11 02:55:40;;;;;;;49.22;24.38;;;0.10;99.90;;;;;;5015549;28;20183;-75
2022/01/11 02:58:07;;;;;;;42.88;21.80;;;0.10;99.90;;;;;;5016340;28;20258;-75
2022/01/11 03:00:33;;;;;;;62.90;21.83;;;0.10;99.90;;;;;;5016763;28;20187;-76
2022/01/11 03:03:28;;;;;;;46.88;20.95;;;0.00;99.90;;;;;;5016566;28;20176;-75
2022/01/11 03:05:58;;;;;;;45.10;20.77;;;0.00;99.90;;;;;;5003764;28;20206;-75
2022/01/11 03:08:26;;;;;;;36.65;18.70;;;-0.10;99.90;;;;;;5016188;28;20258;-76
2022/01/11 03:10:52;;;;;;;45.35;19.48;;;-0.20;99.90;;;;;;5016403;28;20198;-76
2022/01/11 03:13:18;;;;;;;42.22;20.35;;;-0.30;99.90;;;;;;5016377;28;20188;-77
2022/01/11 03:15:46;;;;;;;45.42;20.17;;;-0.20;99.90;;;;;;5016175;28;20205;-76
2022/01/11 03:18:13;;;;;;;45.10;20.75;;;-0.20;99.90;;;;;;5015796;28;20202;-76
2022/01/11 03:20:40;;;;;;;41.95;19.40;;;-0.10;99.90;;;;;;5016325;28;20546;-76
2022/01/11 03:23:07;;;;;;;34.63;18.00;;;-0.20;99.90;;;;;;5016221;28;20241;-76
2022/01/11 03:25:33;;;;;;;42.83;18.13;;;-0.10;99.90;;;;;;5014846;28;20176;-76
2022/01/11 03:27:59;;;;;;;43.72;20.73;;;-0.20;99.90;;;;;;5015690;28;20262;-76
2022/01/11 03:30:24;;;;;;;47.70;20.17;;;-0.20;99.90;;;;;;5014934;28;20266;-76
2022/01/11 03:32:51;;;;;;;45.30;19.43;;;-0.20;99.90;;;;;;5016073;28;20242;-76
2022/01/11 03:35:17;;;;;;;44.28;20.83;;;-0.10;99.90;;;;;;5016021;28;20176;-75
2022/01/11 03:37:46;;;;;;;37.53;17.35;;;-0.10;99.90;;;;;;5015208;28;20245;-76
2022/01/11 03:40:15;;;;;;;33.67;16.70;;;-0.10;99.90;;;;;;5016007;28;20631;-75
2022/01/11 03:42:41;;;;;;;37.80;18.50;;;-0.10;99.90;;;;;;5015715;28;20175;-76
2022/01/11 03:45:08;;;;;;;36.67;17.47;;;-0.20;99.90;;;;;;5015917;28;20180;-76
2022/01/11 03:47:34;;;;;;;38.53;17.83;;;-0.30;99.90;;;;;;5015518;28;20418;-75
2022/01/11 03:49:59;;;;;;;32.05;18.25;;;-0.30;99.90;;;;;;5015818;28;20204;-76
2022/01/11 03:52:25;;;;;;;41.60;19.60;;;-0.30;99.90;;;;;;5015693;28;20210;-75
2022/01/11 03:57:17;;;;;;;37.03;16.83;;;-0.30;99.90;;;;;;5014672;28;20297;-76
2022/01/11 03:59:43;;;;;;;34.63;18.13;;;-0.40;99.90;;;;;;5015203;28;20224;-76
2022/01/11 04:02:09;;;;;;;41.03;19.73;;;-0.40;99.90;;;;;;5014227;28;20180;-75
2022/01/11 04:04:35;;;;;;;37.90;18.07;;;-0.40;99.90;;;;;;5015475;28;20407;-75
2022/01/11 04:07:00;;;;;;;36.70;17.13;;;-0.30;99.90;;;;;;5015430;28;20423;-75
2022/01/11 04:09:27;;;;;;;32.53;16.87;;;-0.30;99.90;;;;;;5014988;28;20211;-74
2022/01/11 04:11:52;;;;;;;31.40;16.77;;;-0.40;99.90;;;;;;5015065;28;20242;-76
2022/01/11 04:14:18;;;;;;;34.80;17.47;;;-0.40;99.90;;;;;;5015229;28;20179;-75
2022/01/11 04:16:44;;;;;;;39.23;20.20;;;-0.40;99.90;;;;;;5015116;28;20413;-75
2022/01/11 04:19:09;;;;;;;41.97;19.77;;;-0.40;99.90;;;;;;5014602;28;20295;-74
2022/01/11 04:21:35;;;;;;;42.93;18.10;;;-0.40;99.90;;;;;;5013790;28;20191;-76
2022/01/11 04:24:02;;;;;;;41.17;17.80;;;-0.50;99.90;;;;;;5015075;28;20267;-75
2022/01/11 04:26:28;;;;;;;37.50;16.70;;;-0.50;99.90;;;;;;5015106;28;20172;-75
2022/01/11 04:28:54;;;;;;;38.70;16.53;;;-0.50;99.90;;;;;;5013366;28;20204;-75
2022/01/11 04:31:19;;;;;;;39.50;16.97;;;-0.50;99.90;;;;;;5014963;28;20253;-75
2022/01/11 04:33:45;;;;;;;35.00;17.93;;;-0.50;99.90;;;;;;5014987;28;20656;-75
2022/01/11 04:36:12;;;;;;;30.85;15.50;;;-0.50;99.90;;;;;;5014785;28;20419;-75
2022/01/11 04:38:38;;;;;;;35.55;15.50;;;-0.50;99.90;;;;;;5014374;28;20254;-74
2022/01/11 04:41:04;;;;;;;33.92;16.00;;;-0.60;99.90;;;;;;5014699;28;20710;-76
2022/01/11 04:43:33;;;;;;;31.15;14.95;;;-0.60;99.90;;;;;;5014922;28;20318;-74
2022/01/11 04:45:59;;;;;;;30.40;16.02;;;-0.50;99.90;;;;;;5014694;28;20171;-74
2022/01/11 04:48:25;;;;;;;39.93;16.70;;;-0.50;99.90;;;;;;5014185;28;20306;-74
2022/01/11 04:50:51;;;;;;;34.15;14.75;;;-0.50;99.90;;;;;;5014692;28;21036;-74
2022/01/11 04:53:17;;;;;;;30.25;15.35;;;-0.60;99.90;;;;;;5014508;28;20188;-74
2022/01/11 04:55:42;;;;;;;27.50;14.10;;;-0.60;99.90;;;;;;5014480;28;20249;-75
2022/01/11 04:58:08;;;;;;;33.63;14.73;;;-0.70;99.90;;;;;;5013911;28;20211;-74
2022/01/11 05:00:34;;;;;;;25.50;14.70;;;-0.80;99.90;;;;;;5014451;28;20414;-76
2022/01/11 05:03:00;;;;;;;29.38;13.20;;;-0.80;99.90;;;;;;5013127;28;20530;-76
2022/01/11 05:05:28;;;;;;;33.07;14.70;;;-0.80;99.90;;;;;;5013245;28;20270;-76
2022/01/11 05:07:54;;;;;;;35.70;15.95;;;-0.70;99.90;;;;;;5013521;28;20207;-73
2022/01/11 05:10:20;;;;;;;32.05;14.40;;;-0.70;99.90;;;;;;5014055;28;20677;-73
2022/01/11 05:12:46;;;;;;;36.83;17.27;;;-0.80;99.90;;;;;;5014156;28;20187;-76
2022/01/11 05:15:13;;;;;;;37.50;16.23;;;-0.80;99.90;;;;;;5014227;28;20712;-74
2022/01/11 05:17:39;;;;;;;35.13;15.07;;;-0.80;99.90;;;;;;5012564;28;20199;-75
2022/01/11 05:20:07;;;;;;;28.08;14.05;;;-0.80;99.90;;;;;;5014047;28;20795;-74
2022/01/11 05:22:33;;;;;;;33.33;13.77;;;-0.70;99.90;;;;;;5013703;28;20321;-76
2022/01/11 05:24:59;;;;;;;28.55;13.82;;;-0.80;99.90;;;;;;4996384;28;20683;-74
2022/01/11 05:27:27;;;;;;;26.73;12.85;;;-0.80;99.90;;;;;;5013599;28;20261;-78
2022/01/11 05:29:52;;;;;;;24.30;13.10;;;-0.90;99.90;;;;;;5014142;28;20346;-74
2022/01/11 05:32:18;;;;;;;33.03;14.40;;;-1.00;99.90;;;;;;5014039;28;20223;-75
2022/01/11 05:34:43;;;;;;;30.17;13.07;;;-0.90;99.90;;;;;;5013618;28;20186;-75
2022/01/11 05:37:09;;;;;;;24.57;12.60;;;-0.90;99.90;;;;;;5013701;28;20723;-75
2022/01/11 05:39:36;;;;;;;30.27;14.57;;;-0.90;99.90;;;;;;5013445;28;20199;-74
2022/01/11 05:42:06;;;;;;;32.00;15.38;;;-0.80;99.90;;;;;;5013755;28;20227;-74
2022/01/11 05:44:35;;;;;;;33.20;14.00;;;-0.80;99.90;;;;;;5013929;28;20401;-74
2022/01/11 05:47:01;;;;;;;29.75;13.82;;;-0.70;99.90;;;;;;5013621;28;20184;-74
2022/01/11 05:49:27;;;;;;;37.25;15.98;;;-0.70;99.90;;;;;;5013263;28;20294;-74
2022/01/11 05:51:52;;;;;;;40.87;14.47;;;-0.70;99.90;;;;;;5013834;28;20259;-74
2022/01/11 05:54:18;;;;;;;33.07;14.20;;;-0.70;99.90;;;;;;5013697;28;20180;-74
2022/01/11 05:56:44;;;;;;;35.30;15.33;;;-0.80;99.90;;;;;;5012383;28;20206;-74
2022/01/11 05:59:09;;;;;;;36.70;15.53;;;-0.80;99.90;;;;;;5013015;28;20207;-74
2022/01/11 06:01:35;;;;;;;42.80;18.53;;;-0.80;99.90;;;;;;5013404;28;20186;-75
2022/01/11 06:04:01;;;;;;;39.40;17.50;;;-0.80;99.90;;;;;;5013523;28;20179;-74
2022/01/11 06:06:27;;;;;;;44.67;18.70;;;-0.80;99.90;;;;;;5013452;28;20422;-75
2022/01/11 06:08:52;;;;;;;45.43;19.23;;;-0.80;99.90;;;;;;5012838;28;20291;-74
2022/01/11 06:11:18;;;;;;;45.57;17.90;;;-0.70;99.90;;;;;;5013346;28;20230;-74
2022/01/11 06:13:44;;;;;;;49.47;19.60;;;-0.70;99.90;;;;;;5013217;28;20700;-74
2022/01/11 06:16:10;;;;;;;50.35;20.67;;;-0.80;99.90;;;;;;5013219;28;20544;-75
2022/01/11 06:18:36;;;;;;;47.17;19.83;;;-0.80;99.90;;;;;;5012674;28;20227;-75
2022/01/11 06:21:02;;;;;;;51.93;21.20;;;-0.80;99.90;;;;;;5017275;28;20564;-75
2022/01/11 06:23:28;;;;;;;43.35;20.60;;;-0.70;99.90;;;;;;5016057;28;20176;-75
2022/01/11 06:25:53;;;;;;;42.83;19.80;;;-0.70;99.90;;;;;;5017284;28;20514;-75
2022/01/11 06:28:19;;;;;;;55.47;21.23;;;-0.60;99.90;;;;;;5015567;28;20658;-75
2022/01/11 06:30:45;;;;;;;48.57;21.57;;;-0.70;99.90;;;;;;5017225;28;20187;-75
2022/01/11 06:33:11;;;;;;;50.17;20.83;;;-0.60;99.90;;;;;;5017155;28;20210;-74
2022/01/11 06:35:36;;;;;;;51.60;21.20;;;-0.60;99.90;;;;;;4999506;28;20230;-74
2022/01/11 06:38:02;;;;;;;59.53;22.40;;;-0.50;99.90;;;;;;5016513;28;20687;-75
2022/01/11 06:40:28;;;;;;;59.43;20.70;;;-0.50;99.90;;;;;;5017249;28;20503;-74
2022/01/11 06:42:53;;;;;;;48.40;22.60;;;-0.50;99.90;;;;;;4999438;28;20179;-74
2022/01/11 06:45:21;;;;;;;61.23;23.27;;;-0.50;99.90;;;;;;5016977;28;20660;-74
2022/01/11 06:47:47;;;;;;;57.58;23.25;;;-0.50;99.90;;;;;;5016504;28;20199;-74
2022/01/11 06:50:13;;;;;;;63.67;24.63;;;-0.60;99.90;;;;;;5017029;28;20207;-74
2022/01/11 06:52:42;;;;;;;52.38;23.23;;;-0.50;99.90;;;;;;5016959;28;20187;-74
2022/01/11 06:55:08;;;;;;;63.72;24.00;;;-0.50;99.90;;;;;;5016905;28;20175;-74
2022/01/11 06:57:34;;;;;;;56.17;23.48;;;-0.50;99.90;;;;;;5016195;28;20290;-74
2022/01/11 07:00:00;;;;;;;61.43;24.50;;;-0.50;99.90;;;;;;5016493;28;20619;-74
2022/01/11 07:02:25;;;;;;;58.40;23.67;;;-0.50;99.90;;;;;;5016518;28;20771;-74
2022/01/11 07:04:51;;;;;;;55.40;25.90;;;-0.50;99.90;;;;;;5016536;28;20203;-74
2022/01/11 07:07:16;;;;;;;53.80;23.27;;;-0.40;99.90;;;;;;5016276;28;20218;-75
2022/01/11 07:09:42;;;;;;;61.23;25.27;;;-0.40;99.90;;;;;;5016070;28;20262;-75
2022/01/11 07:12:08;;;;;;;67.57;25.52;;;-0.40;99.90;;;;;;5015229;28;20190;-75
2022/01/11 07:14:34;;;;;;;61.40;24.13;;;-0.40;99.90;;;;;;5015105;28;20187;-76
2022/01/11 07:17:00;;;;;;;67.67;26.23;;;-0.40;99.90;;;;;;5016297;28;20421;-76
2022/01/11 07:19:29;;;;;;;57.33;25.92;;;-0.40;99.90;;;;;;5015652;28;20549;-76
2022/01/11 07:21:56;;;;;;;69.50;28.05;;;-0.50;99.90;;;;;;4998995;28;20269;-75
2022/01/11 07:24:23;;;;;;;73.65;26.40;;;-0.50;99.90;;;;;;5016202;28;20171;-75
2022/01/11 07:26:49;;;;;;;58.13;26.85;;;-0.50;99.90;;;;;;5016151;28;20172;-75
2022/01/11 07:29:14;;;;;;;67.60;26.20;;;-0.50;99.90;;;;;;5015714;28;20536;-76
2022/01/11 07:31:41;;;;;;;54.40;24.83;;;-0.50;99.90;;;;;;5015964;28;20187;-76
2022/01/11 07:34:08;;;;;;;67.05;28.55;;;-0.50;99.90;;;;;;5014897;28;20187;-75
2022/01/11 07:36:34;;;;;;;66.32;27.30;;;-0.50;99.90;;;;;;5015934;28;20606;-76
2022/01/11 07:39:00;;;;;;;60.63;25.13;;;-0.50;99.90;;;;;;5015590;28;20215;-75
2022/01/11 07:41:26;;;;;;;55.40;25.30;;;-0.50;99.90;;;;;;5015969;28;20176;-76
2022/01/11 07:43:52;;;;;;;69.43;28.25;;;-0.50;99.90;;;;;;5015762;28;20421;-76
2022/01/11 07:46:17;;;;;;;59.03;24.93;;;-0.40;99.90;;;;;;5015911;28;20532;-75
2022/01/11 07:48:43;;;;;;;57.87;26.50;;;-0.40;99.90;;;;;;5015494;28;20211;-75
2022/01/11 07:51:09;;;;;;;56.00;26.03;;;-0.40;99.90;;;;;;5015812;28;20180;-75
2022/01/11 07:53:35;;;;;;;57.47;24.70;;;-0.40;99.90;;;;;;5015634;28;20204;-76
2022/01/11 07:56:01;;;;;;;63.93;25.83;;;-0.40;99.90;;;;;;5014565;28;20640;-75
2022/01/11 07:58:26;;;;;;;67.43;26.37;;;-0.40;99.90;;;;;;5014061;28;20513;-75
2022/01/11 08:00:52;;;;;;;65.27;28.73;;;-0.30;99.90;;;;;;5015672;28;20179;-76
2022/01/11 08:03:18;;;;;;;56.97;26.25;;;-0.30;99.90;;;;;;5015514;28;20180;-76
2022/01/11 08:05:44;;;;;;;50.72;22.67;;;-0.30;99.90;;;;;;5015338;28;20685;-75
2022/01/11 08:08:10;;;;;;;37.10;18.97;;;-0.30;99.90;;;;;;5015077;28;20204;-75
2022/01/11 08:10:35;;;;;;;42.10;19.87;;;-0.40;99.90;;;;;;5015418;28;20242;-75
2022/01/11 08:13:07;;;;;;;39.50;18.80;;;-0.40;99.90;;;;;;5015415;28;20184;-75
2022/01/11 08:15:34;;;;;;;44.72;18.13;;;-0.50;99.90;;;;;;5015114;28;20172;-78
2022/01/11 08:17:59;;;;;;;37.42;19.02;;;-0.50;99.90;;;;;;5014666;28;20523;-75
2022/01/11 08:20:25;;;;;;;41.23;18.37;;;-0.40;99.90;;;;;;5015174;28;20317;-75
2022/01/11 08:22:53;;;;;;;34.57;18.87;;;-0.50;99.90;;;;;;4997591;28;20553;-74
2022/01/11 08:25:19;;;;;;;40.50;18.48;;;-0.50;99.90;;;;;;5015056;28;20194;-75
2022/01/11 08:27:45;;;;;;;37.72;17.02;;;-0.50;99.90;;;;;;5014570;28;20292;-75
2022/01/11 08:30:11;;;;;;;42.53;17.17;;;-0.60;99.90;;;;;;5015189;28;20186;-75
2022/01/11 08:32:37;;;;;;;33.88;16.90;;;-0.60;99.90;;;;;;5014888;28;20261;-75
2022/01/11 08:35:03;;;;;;;35.03;16.47;;;-0.70;99.90;;;;;;5015002;28;20262;-75
2022/01/11 08:37:28;;;;;;;35.70;16.52;;;-0.70;99.90;;;;;;5014352;28;20215;-75
2022/01/11 08:39:54;;;;;;;32.73;16.57;;;-0.70;99.90;;;;;;5014405;28;20593;-75
2022/01/11 08:42:20;;;;;;;33.47;15.73;;;-0.70;99.90;;;;;;5013937;28;20171;-75
2022/01/11 08:44:47;;;;;;;38.00;18.00;;;-0.70;99.90;;;;;;5013509;28;20180;-75
2022/01/11 08:47:14;;;;;;;31.70;14.32;;;-0.80;99.90;;;;;;5014747;28;20218;-75
2022/01/11 08:49:40;;;;;;;34.72;15.93;;;-0.70;99.90;;;;;;5014490;28;20534;-75
2022/01/11 08:52:06;;;;;;;27.92;14.30;;;-0.80;99.90;;;;;;5014660;28;20254;-76
2022/01/11 08:54:32;;;;;;;36.28;16.13;;;-0.80;99.90;;;;;;5014682;28;20211;-75
2022/01/11 08:56:58;;;;;;;37.80;17.63;;;-0.80;99.90;;;;;;5014655;28;20179;-75
2022/01/11 08:59:27;;;;;;;38.17;17.60;;;-0.80;99.90;;;;;;5014048;28;20199;-76
2022/01/11 09:01:55;;;;;;;32.00;15.25;;;-0.80;99.90;;;;;;5014454;28;20563;-76
2022/01/11 09:04:21;;;;;;;35.55;14.95;;;-0.80;99.90;;;;;;5014288;28;20179;-76
2022/01/11 09:06:48;;;;;;;31.13;15.18;;;-0.70;99.90;;;;;;5014300;28;20203;-75
2022/01/11 09:09:14;;;;;;;26.10;15.52;;;-0.70;99.90;;;;;;5013880;28;20298;-75
2022/01/11 09:11:41;;;;;;;33.80;14.80;;;-0.60;99.90;;;;;;5014260;28;20262;-76
2022/01/11 09:14:07;;;;;;;34.85;16.17;;;-0.60;99.90;;;;;;5014025;28;20561;-76
2022/01/11 09:16:33;;;;;;;31.03;15.93;;;-0.60;99.90;;;;;;5014044;28;20180;-75
2022/01/11 09:18:58;;;;;;;40.67;19.30;;;-0.60;99.90;;;;;;5012313;28;20515;-76
2022/01/11 09:21:24;;;;;;;38.00;16.67;;;-0.60;99.90;;;;;;5014049;28;20175;-76
2022/01/11 09:23:51;;;;;;;40.00;18.43;;;-0.60;99.90;;;;;;5013951;28;20207;-75
2022/01/11 09:26:17;;;;;;;44.42;19.45;;;-0.50;99.90;;;;;;5013781;28;20743;-76
2022/01/11 09:28:43;;;;;;;36.60;19.02;;;-0.50;99.90;;;;;;5013404;28;20224;-76
2022/01/11 09:31:08;;;;;;;44.80;19.50;;;-0.40;99.90;;;;;;5013881;28;20290;-75
2022/01/11 09:33:34;;;;;;;41.70;19.77;;;-0.30;99.90;;;;;;5014060;28;20184;-76
2022/01/11 09:36:00;;;;;;;40.63;19.73;;;-0.20;99.90;;;;;;5014098;28;20184;-75
2022/01/11 09:38:27;;;;;;;39.85;17.00;;;-0.20;99.90;;;;;;5013222;28;20297;-75
2022/01/11 09:40:55;;;;;;;46.35;20.77;;;-0.20;99.90;;;;;;5012805;28;20172;-75
2022/01/11 09:43:22;;;;;;;41.15;20.58;;;0.00;99.90;;;;;;5013732;28;20195;-76
2022/01/11 09:45:49;;;;;;;50.03;20.25;;;0.10;99.90;;;;;;5013811;28;20592;-76
2022/01/11 09:48:19;;;;;;;39.85;21.10;;;0.30;99.90;;;;;;5011925;28;20208;-75
2022/01/11 09:50:44;;;;;;;37.17;19.10;;;0.40;99.90;;;;;;5013601;28;20603;-75
2022/01/11 09:53:10;;;;;;;42.97;22.93;;;0.50;99.90;;;;;;5012485;28;20217;-75
2022/01/11 09:55:36;;;;;;;39.33;19.87;;;0.50;99.90;;;;;;4995900;28;20188;-75
2022/01/11 09:58:03;;;;;;;44.75;20.80;;;0.60;99.90;;;;;;5011703;28;20745;-75
2022/01/11 10:00:29;;;;;;;46.08;20.00;;;0.80;99.90;;;;;;5013423;28;20213;-75
2022/01/11 10:02:55;;;;;;;42.20;21.57;;;0.80;99.90;;;;;;5013441;28;20598;-76
2022/01/11 10:05:21;;;;;;;37.87;17.87;;;0.90;99.90;;;;;;5013562;28;20186;-76
2022/01/11 10:07:47;;;;;;;38.60;18.43;;;0.90;99.90;;;;;;5013079;28;20486;-75
2022/01/11 10:10:30;;;;;;;39.63;20.47;;;0.90;99.90;;;;;;5013327;28;20421;-75
2022/01/11 10:12:58;;;;;;;43.58;19.33;;;1.10;99.90;;;;;;5013346;28;20202;-76
2022/01/11 10:15:31;;;;;;;37.40;20.33;;;1.20;99.90;;;;;;5013348;28;20173;-76
2022/01/11 10:17:57;;;;;;;38.63;18.50;;;1.20;99.90;;;;;;5012790;28;20199;-76
2022/01/11 10:20:24;;;;;;;34.17;18.90;;;1.40;99.90;;;;;;5013003;28;20225;-75
2022/01/11 10:22:56;;;;;;;36.47;18.70;;;1.60;99.90;;;;;;5012935;28;20183;-76
2022/01/11 10:25:23;;;;;;;29.73;17.00;;;1.70;99.90;;;;;;5013118;28;20183;-76
2022/01/11 10:28:00;;;;;;;27.08;15.27;;;1.70;99.90;;;;;;5012804;28;20565;-76
2022/01/11 10:30:26;;;;;;;25.50;14.20;;;2.00;99.90;;;;;;5013293;28;20651;-76
2022/01/11 10:32:54;;;;;;;27.60;14.50;;;1.90;99.90;;;;;;5013235;28;20208;-76
2022/01/11 10:35:23;;;;;;;27.48;14.50;;;2.20;99.90;;;;;;5013184;28;20634;-76
2022/01/11 10:37:52;;;;;;;26.70;15.95;;;2.10;99.90;;;;;;5012430;28;20651;-75
2022/01/11 10:40:38;;;;;;;28.10;15.25;;;2.30;99.90;;;;;;5012983;28;20194;-76
2022/01/11 10:43:07;;;;;;;25.25;14.82;;;2.50;99.90;;;;;;5012893;28;20233;-75
2022/01/11 10:45:35;;;;;;;26.23;15.52;;;2.60;99.90;;;;;;5012919;28;20178;-76
2022/01/11 10:48:13;;;;;;;25.17;16.05;;;2.70;99.90;;;;;;5012713;28;20201;-76
2022/01/11 10:50:45;;;;;;;24.70;15.45;;;2.80;99.90;;;;;;5013147;28;20267;-76
2022/01/11 10:53:16;;;;;;;30.60;16.20;;;2.30;99.90;;;;;;5013167;28;20608;-76
2022/01/11 10:55:43;;;;;;;27.38;14.55;;;2.20;99.90;;;;;;5013107;28;20208;-77
2022/01/11 10:58:12;;;;;;;26.67;15.82;;;2.40;99.90;;;;;;5011432;28;20628;-76
2022/01/11 11:00:42;;;;;;;23.80;14.75;;;2.20;99.90;;;;;;5013052;28;20205;-76
2022/01/11 11:03:13;;;;;;;27.67;14.85;;;2.20;99.90;;;;;;5013031;28;20180;-76
2022/01/11 11:05:53;;;;;;;26.88;15.50;;;2.10;99.90;;;;;;5014713;28;20258;-76
2022/01/11 11:08:31;;;;;;;27.27;16.08;;;2.10;99.90;;;;;;5014856;28;20199;-76
2022/01/11 11:10:56;;;;;;;23.83;15.18;;;2.40;99.90;;;;;;5016409;28;20584;-77
2022/01/11 11:13:30;;;;;;;27.63;15.43;;;2.80;99.90;;;;;;5016335;28;20183;-76
2022/01/11 11:16:16;;;;;;;35.05;15.18;;;2.90;99.90;;;;;;5016443;28;20172;-76
2022/01/11 11:19:02;;;;;;;24.33;14.57;;;3.00;99.90;;;;;;5015954;28;20211;-76
2022/01/11 11:21:32;;;;;;;26.83;15.00;;;3.20;99.90;;;;;;5014981;28;20539;-76
2022/01/11 11:24:04;;;;;;;29.10;15.98;;;3.10;99.90;;;;;;5016428;28;20243;-75
2022/01/11 11:26:39;;;;;;;22.58;14.70;;;3.30;99.90;;;;;;5016264;28;20267;-75
2022/01/11 11:29:10;;;;;;;29.08;15.65;;;3.30;99.90;;;;;;5015665;28;20191;-76
2022/01/11 11:31:38;;;;;;;28.30;15.82;;;3.50;99.90;;;;;;5015946;28;20184;-76
2022/01/11 11:34:07;;;;;;;25.50;16.05;;;3.90;99.90;;;;;;5016160;28;20263;-75
2022/01/11 11:36:38;;;;;;;24.45;14.85;;;3.80;99.90;;;;;;5015713;28;20200;-76
2022/01/11 11:39:22;;;;;;;29.88;17.60;;;4.00;99.90;;;;;;5015422;28;20218;-76
2022/01/11 11:41:55;;;;;;;28.65;16.40;;;4.10;99.90;;;;;;5016227;28;20205;-76
2022/01/11 11:44:24;;;;;;;31.10;17.95;;;4.10;99.90;;;;;;5015883;28;20618;-76
2022/01/11 11:46:52;;;;;;;29.85;17.73;;;4.40;99.90;;;;;;5015960;28;20174;-75
2022/01/11 11:49:51;;;;;;;32.60;17.75;;;4.50;99.90;;;;;;5015480;28;20195;-75
2022/01/11 11:52:30;;;;;;;28.50;16.67;;;4.60;99.90;;;;;;5015812;28;20190;-75
2022/01/11 11:55:02;;;;;;;31.83;17.08;;;4.70;99.90;;;;;;5015738;28;20179;-76
2022/01/11 11:57:34;;;;;;;31.42;16.67;;;5.00;99.90;;;;;;5015325;28;20195;-75
2022/01/11 12:00:11;;;;;;;32.22;18.48;;;5.10;99.90;;;;;;5015697;28;20266;-75
2022/01/11 12:02:56;;;;;;;29.08;16.10;;;5.20;99.90;;;;;;5015580;28;20696;-76
2022/01/11 12:05:40;;;;;;;34.60;17.73;;;5.20;99.90;;;;;;5015735;28;20531;-76
2022/01/11 12:08:26;;;;;;;26.40;16.92;;;5.40;99.90;;;;;;5015292;28;20254;-75
2022/01/11 12:10:55;;;;;;;33.72;17.50;;;5.80;99.90;;;;;;5015370;28;20179;-75
2022/01/11 12:13:42;;;;;;;25.70;15.60;;;5.80;99.90;;;;;;5015387;28;20184;-76
2022/01/11 12:16:26;;;;;;;27.55;16.08;;;6.00;99.90;;;;;;5014830;28;20180;-76
2022/01/11 12:18:59;;;;;;;24.80;15.43;;;6.10;99.90;;;;;;5014564;28;20213;-74
2022/01/11 12:21:28;;;;;;;26.90;16.20;;;6.40;99.90;;;;;;5015211;28;20531;-75
2022/01/11 12:23:56;;;;;;;31.30;17.25;;;6.40;99.90;;;;;;5014968;28;20172;-74
2022/01/11 12:26:27;;;;;;;29.48;16.27;;;6.80;99.90;;;;;;5015137;28;20176;-74
2022/01/11 12:29:05;;;;;;;26.05;15.27;;;7.10;99.90;;;;;;5014603;28;20216;-74
2022/01/11 12:31:39;;;;;;;27.83;14.27;;;7.00;99.90;;;;;;5013734;28;20909;-75
2022/01/11 12:34:09;;;;;;;26.27;15.35;;;7.20;99.90;;;;;;5014853;28;20502;-74
2022/01/11 12:36:52;;;;;;;26.90;14.83;;;7.50;99.90;;;;;;5014651;28;20230;-74
2022/01/11 12:39:19;;;;;;;24.43;14.10;;;7.60;99.90;;;;;;5013327;28;21020;-74